createdAt,value
2019-02-26T00:01:26.085Z,6.00
2019-02-26T00:03:56.377Z,6.00
2019-02-26T00:06:30.134Z,6.00
2019-02-26T00:09:01.823Z,6.00
2019-02-26T00:11:36.182Z,5.90
2019-02-26T00:14:07.451Z,5.90
2019-02-26T00:16:39.986Z,5.90
2019-02-26T00:19:11.941Z,5.90
2019-02-26T00:21:45.662Z,5.80
2019-02-26T00:24:16.859Z,5.80
2019-02-26T00:26:47.971Z,5.90
2019-02-26T00:29:18.699Z,5.80
2019-02-26T00:31:50.785Z,5.80
2019-02-26T00:34:21.909Z,5.70
2019-02-26T00:36:52.624Z,5.70
2019-02-26T00:39:24.972Z,5.70
2019-02-26T00:41:56.298Z,5.70
2019-02-26T00:44:29.888Z,5.60
2019-02-26T00:47:04.317Z,5.60
2019-02-26T00:49:34.376Z,5.60
2019-02-26T00:52:08.712Z,5.60
2019-02-26T00:54:40.158Z,5.50
2019-02-26T00:57:11.439Z,5.50
2019-02-26T00:59:45.785Z,5.40
2019-02-26T01:02:17.065Z,5.50
2019-02-26T01:04:48.538Z,5.60
2019-02-26T01:07:23.849Z,5.60
2019-02-26T01:09:56.893Z,5.70
2019-02-26T01:12:27.727Z,5.70
2019-02-26T01:14:58.719Z,5.70
2019-02-26T01:17:31.251Z,5.70
2019-02-26T01:20:05.362Z,5.70
2019-02-26T01:22:37.646Z,5.70
2019-02-26T01:25:10.116Z,5.70
2019-02-26T01:27:41.371Z,5.70
2019-02-26T01:30:18.157Z,5.70
2019-02-26T01:32:47.483Z,5.60
2019-02-26T01:35:18.350Z,5.60
2019-02-26T01:37:51.325Z,5.50
2019-02-26T01:40:24.008Z,5.50
2019-02-26T01:42:57.933Z,5.40
2019-02-26T01:45:30.484Z,5.40
2019-02-26T01:48:01.520Z,5.40
2019-02-26T01:50:33.455Z,5.30
2019-02-26T01:53:05.907Z,5.30
2019-02-26T01:55:36.675Z,5.20
2019-02-26T01:58:07.457Z,5.20
2019-02-26T02:00:38.667Z,5.20
2019-02-26T02:03:10.718Z,5.10
2019-02-26T02:05:43.295Z,5.10
2019-02-26T02:08:15.565Z,5.00
2019-02-26T02:10:46.665Z,5.00
2019-02-26T02:13:17.409Z,5.00
2019-02-26T02:15:48.126Z,4.90
2019-02-26T02:18:20.670Z,4.90
2019-02-26T02:20:51.391Z,4.90
2019-02-26T02:23:23.568Z,4.90
2019-02-26T02:25:55.041Z,4.90
2019-02-26T02:28:26.338Z,4.90
2019-02-26T02:30:58.831Z,4.90
2019-02-26T02:33:32.075Z,4.90
2019-02-26T02:36:02.462Z,5.00
2019-02-26T02:38:36.507Z,4.90
2019-02-26T02:41:05.783Z,4.90
2019-02-26T02:43:36.646Z,4.80
2019-02-26T02:46:07.371Z,4.90
2019-02-26T02:48:38.654Z,4.90
2019-02-26T02:51:13.149Z,5.00
2019-02-26T02:53:41.922Z,4.90
2019-02-26T02:56:15.150Z,5.00
2019-02-26T02:58:46.878Z,5.00
2019-02-26T03:01:21.790Z,4.90
2019-02-26T03:03:50.558Z,4.80
2019-02-26T03:06:24.245Z,4.80
2019-02-26T03:08:55.524Z,4.80
2019-02-26T03:11:26.234Z,4.90
2019-02-26T03:13:57.056Z,5.00
2019-02-26T03:16:28.094Z,5.00
2019-02-26T03:18:59.326Z,5.00
2019-02-26T03:21:31.447Z,5.00
2019-02-26T03:24:03.376Z,4.90
2019-02-26T03:26:34.985Z,4.80
2019-02-26T03:29:05.921Z,4.80
2019-02-26T03:31:40.555Z,4.70
2019-02-26T03:34:14.713Z,4.70
2019-02-26T03:36:45.395Z,4.60
2019-02-26T03:39:15.202Z,4.60
2019-02-26T03:41:48.495Z,4.60
2019-02-26T03:44:19.199Z,4.50
2019-02-26T03:46:49.947Z,4.50
2019-02-26T03:49:20.665Z,4.40
2019-02-26T03:51:51.346Z,4.30
2019-02-26T03:54:22.118Z,4.20
2019-02-26T03:56:52.998Z,4.20
2019-02-26T03:59:24.729Z,4.20
2019-02-26T04:01:55.514Z,4.20
2019-02-26T04:04:28.393Z,4.20
2019-02-26T04:07:01.197Z,4.20
2019-02-26T04:09:31.692Z,4.20
2019-02-26T04:12:02.713Z,4.20
2019-02-26T04:14:33.779Z,4.20
2019-02-26T04:17:06.446Z,4.30
2019-02-26T04:19:38.177Z,4.30
2019-02-26T04:22:48.884Z,4.30
2019-02-26T04:25:22.247Z,4.40
2019-02-26T04:27:59.914Z,4.40
2019-02-26T04:31:12.183Z,4.40
2019-02-26T04:34:08.582Z,4.40
2019-02-26T04:37:13.702Z,4.40
2019-02-26T04:40:20.634Z,4.40
2019-02-26T04:43:34.141Z,4.30
2019-02-26T04:46:25.531Z,4.30
2019-02-26T04:48:57.881Z,4.20
2019-02-26T04:51:29.600Z,4.30
2019-02-26T04:54:02.143Z,4.20
2019-02-26T04:56:36.375Z,4.20
2019-02-26T04:59:09.314Z,4.20
2019-02-26T05:01:39.081Z,4.20
2019-02-26T05:04:10.078Z,4.20
2019-02-26T05:06:40.974Z,4.20
2019-02-26T05:09:12.341Z,4.20
2019-02-26T05:11:43.079Z,4.10
2019-02-26T05:14:15.403Z,4.10
2019-02-26T05:16:46.789Z,4.10
2019-02-26T05:19:21.238Z,4.10
2019-02-26T05:21:50.433Z,4.20
2019-02-26T05:24:23.788Z,4.30
2019-02-26T05:26:54.859Z,4.20
2019-02-26T05:29:26.093Z,4.20
2019-02-26T05:31:58.890Z,4.20
2019-02-26T05:34:29.345Z,4.20
2019-02-26T05:37:02.197Z,4.10
2019-02-26T05:39:32.880Z,4.10
2019-02-26T05:42:06.189Z,4.00
2019-02-26T05:44:36.061Z,4.00
2019-02-26T05:47:07.354Z,4.00
2019-02-26T05:49:40.749Z,3.90
2019-02-26T05:52:10.916Z,3.90
2019-02-26T05:54:41.904Z,3.90
2019-02-26T05:57:25.918Z,3.90
2019-02-26T05:59:46.148Z,3.90
2019-02-26T06:02:19.145Z,3.90
2019-02-26T06:04:49.762Z,3.90
2019-02-26T06:07:24.140Z,3.90
2019-02-26T06:09:56.169Z,3.90
2019-02-26T06:12:26.048Z,3.80
2019-02-26T06:15:00.704Z,3.80
2019-02-26T06:17:30.087Z,3.80
2019-02-26T06:20:11.055Z,3.80
2019-02-26T06:22:42.216Z,3.70
2019-02-26T06:25:18.659Z,3.70
2019-02-26T06:27:45.990Z,3.70
2019-02-26T06:30:16.916Z,3.70
2019-02-26T06:32:47.700Z,3.70
2019-02-26T06:35:19.331Z,3.70
2019-02-26T06:37:51.580Z,3.70
2019-02-26T06:40:22.354Z,3.70
2019-02-26T06:42:53.121Z,3.70
2019-02-26T06:45:24.219Z,3.80
2019-02-26T06:47:56.397Z,3.80
2019-02-26T06:50:27.421Z,3.90
2019-02-26T06:52:58.179Z,3.90
2019-02-26T06:55:28.898Z,3.90
2019-02-26T06:58:26.273Z,4.00
2019-02-26T07:00:58.933Z,4.10
2019-02-26T07:03:30.006Z,4.40
2019-02-26T07:06:03.200Z,4.80
2019-02-26T07:08:33.413Z,5.10
2019-02-26T07:11:04.551Z,5.20
2019-02-26T07:13:36.709Z,5.40
2019-02-26T07:16:09.208Z,5.60
2019-02-26T07:18:40.023Z,5.80
2019-02-26T07:21:10.732Z,5.80
2019-02-26T07:23:41.467Z,5.80
2019-02-26T07:26:13.641Z,5.90
2019-02-26T07:28:46.402Z,6.40
2019-02-26T07:31:18.207Z,6.80
2019-02-26T07:33:51.026Z,7.10
2019-02-26T07:36:23.611Z,7.50
2019-02-26T07:38:56.458Z,7.80
2019-02-26T07:41:29.830Z,8.10
2019-02-26T07:44:00.012Z,8.40
2019-02-26T07:46:32.837Z,8.70
2019-02-26T07:49:04.755Z,9.10
2019-02-26T07:51:38.070Z,9.90
2019-02-26T07:54:09.063Z,11.10
2019-02-26T07:56:39.782Z,12.30
2019-02-26T07:59:12.452Z,13.00
2019-02-26T08:01:45.257Z,13.30
2019-02-26T08:04:18.325Z,13.80
2019-02-26T08:06:48.846Z,14.40
2019-02-26T08:09:23.124Z,15.20
2019-02-26T08:11:52.545Z,15.70
2019-02-26T08:14:25.119Z,16.10
2019-02-26T08:16:56.771Z,16.70
2019-02-26T08:19:29.707Z,17.20
2019-02-26T08:22:00.931Z,17.70
2019-02-26T08:24:32.007Z,18.30
2019-02-26T08:27:03.419Z,18.80
2019-02-26T08:29:36.192Z,20.00
2019-02-26T08:32:07.246Z,21.20
2019-02-26T08:34:39.764Z,22.00
2019-02-26T08:37:10.755Z,22.90
2019-02-26T08:39:41.487Z,23.80
2019-02-26T08:42:12.959Z,24.90
2019-02-26T08:44:46.228Z,26.10
2019-02-26T08:47:18.654Z,27.10
2019-02-26T08:49:49.184Z,28.20
2019-02-26T08:52:22.837Z,28.80
2019-02-26T08:54:53.007Z,29.30
2019-02-26T08:57:24.042Z,29.80
2019-02-26T08:59:54.792Z,30.00
2019-02-26T09:02:25.631Z,29.20
2019-02-26T09:04:59.146Z,29.10
2019-02-26T09:07:30.129Z,29.30
2019-02-26T09:10:00.830Z,29.70
2019-02-26T09:12:31.613Z,30.10
2019-02-26T09:15:04.019Z,30.80
2019-02-26T09:17:36.994Z,31.10
2019-02-26T09:20:12.340Z,30.60
2019-02-26T09:22:45.818Z,30.20
2019-02-26T09:25:16.147Z,30.10
2019-02-26T09:27:47.063Z,30.40
2019-02-26T09:30:18.323Z,30.80
2019-02-26T09:32:52.305Z,30.60
2019-02-26T09:35:27.042Z,29.30
2019-02-26T09:38:00.737Z,28.70
2019-02-26T09:40:33.448Z,28.30
2019-02-26T09:43:02.537Z,28.10
2019-02-26T09:45:33.427Z,28.10
2019-02-26T09:48:04.362Z,28.50
2019-02-26T09:50:36.753Z,29.40
2019-02-26T09:53:08.157Z,29.60
2019-02-26T09:55:38.949Z,30.00
2019-02-26T09:58:09.949Z,30.50
2019-02-26T10:00:42.920Z,30.80
2019-02-26T10:03:15.083Z,30.90
2019-02-26T10:05:47.800Z,31.20
2019-02-26T10:08:19.997Z,31.40
2019-02-26T10:10:54.195Z,31.60
2019-02-26T10:13:27.738Z,31.50
2019-02-26T10:16:00.848Z,31.70
2019-02-26T10:18:32.995Z,31.90
2019-02-26T10:21:05.980Z,31.60
2019-02-26T10:23:36.368Z,30.60
2019-02-26T10:26:09.992Z,29.30
2019-02-26T10:28:42.670Z,28.70
2019-02-26T10:31:12.546Z,28.80
2019-02-26T10:33:45.776Z,28.60
2019-02-26T10:36:18.285Z,28.70
2019-02-26T10:38:50.902Z,28.10
2019-02-26T10:41:22.119Z,27.60
2019-02-26T10:43:52.941Z,27.60
2019-02-26T10:46:23.770Z,27.80
2019-02-26T10:48:55.471Z,27.10
2019-02-26T10:51:27.247Z,26.00
2019-02-26T10:53:59.966Z,25.40
2019-02-26T10:56:33.369Z,25.10
2019-02-26T10:59:05.924Z,25.10
2019-02-26T11:01:35.596Z,25.00
2019-02-26T11:04:06.542Z,24.90
2019-02-26T11:06:39.786Z,24.80
2019-02-26T11:09:17.348Z,24.70
2019-02-26T11:11:45.751Z,24.70
2019-02-26T11:14:17.533Z,24.90
2019-02-26T11:16:48.934Z,24.80
2019-02-26T11:19:19.692Z,24.70
2019-02-26T11:21:55.406Z,24.30
2019-02-26T11:24:25.721Z,24.40
2019-02-26T11:26:56.263Z,24.80
2019-02-26T11:29:28.534Z,25.30
2019-02-26T11:32:01.695Z,25.50
2019-02-26T11:34:33.969Z,25.70
2019-02-26T11:37:08.916Z,25.70
2019-02-26T11:39:38.132Z,25.40
2019-02-26T11:42:10.481Z,25.10
2019-02-26T11:44:41.472Z,25.20
2019-02-26T11:47:13.723Z,25.50
2019-02-26T11:49:46.641Z,25.70
2019-02-26T11:52:19.606Z,25.90
2019-02-26T11:54:49.988Z,26.00
2019-02-26T11:57:20.787Z,25.90
2019-02-26T11:59:51.618Z,26.00
2019-02-26T12:02:26.678Z,25.80
2019-02-26T12:04:54.951Z,25.20
2019-02-26T12:07:27.424Z,25.10
2019-02-26T12:10:04.677Z,25.20
2019-02-26T12:12:34.227Z,25.40
2019-02-26T12:15:07.341Z,25.20
2019-02-26T12:17:39.687Z,24.60
2019-02-26T12:20:14.634Z,24.30
2019-02-26T12:22:47.967Z,24.10
2019-02-26T12:25:17.785Z,24.40
2019-02-26T12:27:48.641Z,24.70
2019-02-26T12:30:20.671Z,25.00
2019-02-26T12:32:54.449Z,25.30
2019-02-26T12:35:24.838Z,25.10
2019-02-26T12:37:59.351Z,25.10
2019-02-26T12:40:28.626Z,25.10
2019-02-26T12:43:02.014Z,25.20
2019-02-26T12:45:35.123Z,25.50
2019-02-26T12:48:06.454Z,25.60
2019-02-26T12:50:40.465Z,25.10
2019-02-26T12:53:14.969Z,24.80
2019-02-26T12:55:44.106Z,24.70
2019-02-26T12:58:17.629Z,24.90
2019-02-26T13:00:47.607Z,25.10
2019-02-26T13:05:51.780Z,24.90
2019-02-26T13:08:24.274Z,24.90
2019-02-26T13:10:58.254Z,24.70
2019-02-26T13:13:28.187Z,24.70
2019-02-26T13:15:58.927Z,24.80
2019-02-26T13:18:30.684Z,24.90
2019-02-26T13:21:03.865Z,25.00
2019-02-26T13:23:34.398Z,24.90
2019-02-26T13:26:08.304Z,24.80
2019-02-26T13:28:38.784Z,24.50
2019-02-26T13:31:13.738Z,24.50
2019-02-26T13:33:43.024Z,24.40
2019-02-26T13:36:14.926Z,24.30
2019-02-26T13:38:48.971Z,23.90
2019-02-26T13:43:50.658Z,23.40
2019-02-26T13:46:21.703Z,23.40
2019-02-26T13:48:52.512Z,23.70
2019-02-26T13:51:23.423Z,23.90
2019-02-26T13:53:54.206Z,23.80
2019-02-26T13:56:25.082Z,23.70
2019-02-26T13:58:55.908Z,23.90
2019-02-26T14:01:26.836Z,23.70
2019-02-26T14:03:57.599Z,23.70
2019-02-26T14:06:29.730Z,23.40
2019-02-26T14:09:00.550Z,23.20
2019-02-26T14:11:33.304Z,23.20
2019-02-26T14:14:04.236Z,22.80
2019-02-26T14:16:35.561Z,22.50
2019-02-26T14:19:06.823Z,22.10
2019-02-26T14:21:37.670Z,21.80
2019-02-26T14:24:08.428Z,21.60
2019-02-26T14:26:39.180Z,21.60
2019-02-26T14:29:10.197Z,21.60
2019-02-26T14:31:41.238Z,21.50
2019-02-26T14:34:12.069Z,21.40
2019-02-26T14:36:43.162Z,21.50
2019-02-26T14:39:14.280Z,21.50
2019-02-26T14:41:45.185Z,21.50
2019-02-26T14:44:16.026Z,21.30
2019-02-26T14:46:46.963Z,21.30
2019-02-26T14:49:17.728Z,21.40
2019-02-26T14:51:48.530Z,21.30
2019-02-26T14:54:19.398Z,21.00
2019-02-26T14:56:50.239Z,21.10
2019-02-26T14:59:21.011Z,21.10
2019-02-26T15:01:52.062Z,20.90
2019-02-26T15:04:22.987Z,21.00
2019-02-26T15:06:55.847Z,20.90
2019-02-26T15:09:26.877Z,20.80
2019-02-26T15:11:57.863Z,20.90
2019-02-26T15:14:28.764Z,20.90
2019-02-26T15:16:59.601Z,21.00
2019-02-26T15:19:30.347Z,21.10
2019-02-26T15:22:01.103Z,21.00
2019-02-26T15:24:33.032Z,20.90
2019-02-26T15:27:03.877Z,20.80
2019-02-26T15:29:34.969Z,20.80
2019-02-26T15:32:06.019Z,20.80
2019-02-26T15:34:36.881Z,20.80
2019-02-26T15:37:07.732Z,20.90
2019-02-26T15:39:39.504Z,20.90
2019-02-26T15:42:10.294Z,20.90
2019-02-26T15:44:41.103Z,21.00
2019-02-26T15:47:11.903Z,21.10
2019-02-26T15:49:42.737Z,20.80
2019-02-26T15:52:13.528Z,20.60
2019-02-26T15:54:44.407Z,20.30
2019-02-26T15:57:15.256Z,20.20
2019-02-26T15:59:46.246Z,20.10
2019-02-26T16:02:17.188Z,20.00
2019-02-26T16:04:48.000Z,19.90
2019-02-26T16:07:18.871Z,19.80
2019-02-26T16:09:49.760Z,19.60
2019-02-26T16:12:20.889Z,19.50
2019-02-26T16:14:52.383Z,19.40
2019-02-26T16:17:23.207Z,19.20
2019-02-26T16:19:54.276Z,19.00
2019-02-26T16:22:25.053Z,18.90
2019-02-26T16:24:55.954Z,18.70
2019-02-26T16:27:26.763Z,18.60
2019-02-26T16:29:57.724Z,18.50
2019-02-26T16:32:28.507Z,18.30
2019-02-26T16:35:00.378Z,18.20
2019-02-26T16:37:32.432Z,18.10
2019-02-26T16:40:03.344Z,18.00
2019-02-26T16:42:34.231Z,17.80
2019-02-26T16:45:06.063Z,17.70
2019-02-26T16:47:37.419Z,17.60
2019-02-26T16:50:13.172Z,17.50
2019-02-26T16:52:42.941Z,17.30
2019-02-26T16:55:17.119Z,17.20
2019-02-26T16:57:46.776Z,17.00
2019-02-26T17:00:20.544Z,16.90
2019-02-26T17:02:51.599Z,16.70
2019-02-26T17:05:22.832Z,16.50
2019-02-26T17:07:54.012Z,16.40
2019-02-26T17:10:29.124Z,16.20
2019-02-26T17:13:01.767Z,16.10
2019-02-26T17:15:30.410Z,15.90
2019-02-26T17:18:01.332Z,15.70
2019-02-26T17:20:33.466Z,15.50
2019-02-26T17:23:04.920Z,15.40
2019-02-26T17:25:35.772Z,15.20
2019-02-26T17:28:06.704Z,15.10
2019-02-26T17:30:37.716Z,15.00
2019-02-26T17:33:11.401Z,14.80
2019-02-26T17:35:41.505Z,14.70
2019-02-26T17:38:12.919Z,14.60
2019-02-26T17:40:45.265Z,14.40
2019-02-26T17:43:17.187Z,14.30
2019-02-26T17:45:48.117Z,14.20
2019-02-26T17:48:18.941Z,14.10
2019-02-26T17:50:49.955Z,14.00
2019-02-26T17:53:20.796Z,13.90
2019-02-26T17:55:51.832Z,13.80
2019-02-26T17:58:22.702Z,13.70
2019-02-26T18:00:56.289Z,13.60
2019-02-26T18:03:28.276Z,13.50
2019-02-26T18:06:00.095Z,13.40
2019-02-26T18:08:30.916Z,13.20
2019-02-26T18:11:01.822Z,13.10
2019-02-26T18:13:32.826Z,13.00
2019-02-26T18:16:09.059Z,12.90
2019-02-26T18:18:37.000Z,12.80
2019-02-26T18:21:07.908Z,12.70
2019-02-26T18:23:38.691Z,12.60
2019-02-26T18:26:09.587Z,12.50
2019-02-26T18:28:40.794Z,12.40
2019-02-26T18:31:11.605Z,12.40
2019-02-26T18:33:42.627Z,12.20
2019-02-26T18:36:13.505Z,12.20
2019-02-26T18:38:48.330Z,12.10
2019-02-26T18:41:17.330Z,12.00
2019-02-26T18:43:48.170Z,11.90
2019-02-26T18:46:19.979Z,11.90
2019-02-26T18:48:50.882Z,11.70
2019-02-26T18:51:21.654Z,11.70
2019-02-26T18:53:52.594Z,11.60
2019-02-26T18:56:23.428Z,11.50
2019-02-26T18:58:54.337Z,11.40
2019-02-26T19:01:25.435Z,11.30
2019-02-26T19:03:56.323Z,11.30
2019-02-26T19:06:27.510Z,11.20
2019-02-26T19:08:58.477Z,11.10
2019-02-26T19:11:29.398Z,11.00
2019-02-26T19:14:00.314Z,10.90
2019-02-26T19:16:31.082Z,10.90
2019-02-26T19:19:03.149Z,10.90
2019-02-26T19:21:34.019Z,10.80
2019-02-26T19:24:05.227Z,10.80
2019-02-26T19:26:36.159Z,10.70
2019-02-26T19:29:07.350Z,10.70
2019-02-26T19:31:38.211Z,10.70
2019-02-26T19:34:09.293Z,10.70
2019-02-26T19:36:40.151Z,10.60
2019-02-26T19:39:11.079Z,10.60
2019-02-26T19:41:45.265Z,10.50
2019-02-26T19:44:14.776Z,10.40
2019-02-26T19:46:49.414Z,10.30
2019-02-26T19:49:18.216Z,10.30
2019-02-26T19:51:49.103Z,10.20
2019-02-26T19:54:19.885Z,10.20
2019-02-26T19:56:50.689Z,10.10
2019-02-26T19:59:21.446Z,10.10
2019-02-26T20:01:52.841Z,10.10
2019-02-26T20:04:23.675Z,10.00
2019-02-26T20:06:58.476Z,9.90
2019-02-26T20:09:27.257Z,9.80
2019-02-26T20:11:58.447Z,9.80
2019-02-26T20:14:29.252Z,9.80
2019-02-26T20:17:04.922Z,9.60
2019-02-26T20:19:32.725Z,9.60
2019-02-26T20:22:03.594Z,9.60
2019-02-26T20:24:34.464Z,9.50
2019-02-26T20:27:05.346Z,9.50
2019-02-26T20:29:36.220Z,9.40
2019-02-26T20:32:08.065Z,9.40
2019-02-26T20:34:39.182Z,9.30
2019-02-26T20:37:10.200Z,9.30
2019-02-26T20:39:43.574Z,9.30
2019-02-26T20:42:13.787Z,9.20
2019-02-26T20:44:46.425Z,9.20
2019-02-26T20:47:17.284Z,9.20
2019-02-26T20:49:48.162Z,9.10
2019-02-26T20:52:19.189Z,9.00
2019-02-26T20:54:50.319Z,9.00
2019-02-26T20:57:21.175Z,8.90
2019-02-26T20:59:52.452Z,8.90
2019-02-26T21:02:23.778Z,8.80
2019-02-26T21:04:54.857Z,8.80
2019-02-26T21:07:26.010Z,8.70
2019-02-26T21:10:04.044Z,8.60
2019-02-26T21:12:39.807Z,8.60
2019-02-26T21:15:13.885Z,8.60
2019-02-26T21:17:45.387Z,8.60
2019-02-26T21:20:16.489Z,8.50
2019-02-26T21:22:48.280Z,8.50
2019-02-26T21:25:19.088Z,8.60
2019-02-26T21:27:50.222Z,8.60
2019-02-26T21:30:21.696Z,8.50
2019-02-26T21:32:52.485Z,8.50
2019-02-26T21:35:23.386Z,8.40
2019-02-26T21:37:54.682Z,8.40
2019-02-26T21:40:25.597Z,8.40
2019-02-26T21:42:56.543Z,8.30
2019-02-26T21:45:29.204Z,8.20
2019-02-26T21:48:02.576Z,8.20
2019-02-26T21:50:32.765Z,8.20
2019-02-26T21:53:03.741Z,8.10
2019-02-26T21:55:43.989Z,8.10
2019-02-26T21:58:07.523Z,8.00
2019-02-26T22:00:39.050Z,8.00
2019-02-26T22:03:10.875Z,7.90
2019-02-26T22:05:41.854Z,7.80
2019-02-26T22:08:12.931Z,7.80
2019-02-26T22:10:43.957Z,7.70
2019-02-26T22:13:15.013Z,7.70
2019-02-26T22:15:46.141Z,7.70
2019-02-26T22:18:17.089Z,7.60
2019-02-26T22:20:48.194Z,7.60
2019-02-26T22:23:19.081Z,7.50
2019-02-26T22:25:52.553Z,7.50
2019-02-26T22:28:23.113Z,7.40
2019-02-26T22:30:55.906Z,7.40
2019-02-26T22:33:27.174Z,7.30
2019-02-26T22:35:59.952Z,7.30
2019-02-26T22:38:30.515Z,7.20
2019-02-26T22:41:02.294Z,7.20
2019-02-26T22:43:34.207Z,7.20
2019-02-26T22:46:05.135Z,7.20
2019-02-26T22:48:35.994Z,7.10
2019-02-26T22:51:06.960Z,7.10
2019-02-26T22:53:37.926Z,7.00
2019-02-26T22:56:08.753Z,7.00
2019-02-26T22:58:39.601Z,6.90
2019-02-26T23:01:18.554Z,6.90
2019-02-26T23:03:51.221Z,6.90
2019-02-26T23:06:22.183Z,6.80
2019-02-26T23:08:53.195Z,6.80
2019-02-26T23:11:24.841Z,6.80
2019-02-26T23:13:56.428Z,6.70
2019-02-26T23:16:28.943Z,6.70
2019-02-26T23:19:01.349Z,6.70
2019-02-26T23:21:33.675Z,6.60
2019-02-26T23:24:05.127Z,6.60
2019-02-26T23:26:36.437Z,6.50
2019-02-26T23:29:07.373Z,6.50
2019-02-26T23:31:38.200Z,6.50
2019-02-26T23:34:09.142Z,6.50
2019-02-26T23:36:40.239Z,6.40
2019-02-26T23:39:14.007Z,6.40
2019-02-26T23:41:46.492Z,6.40
2019-02-26T23:44:18.113Z,6.30
2019-02-26T23:46:49.658Z,6.30
2019-02-26T23:49:21.248Z,6.30
2019-02-26T23:51:53.707Z,6.30
2019-02-26T23:54:24.772Z,6.20
2019-02-26T23:56:55.759Z,6.20
2019-02-26T23:59:26.658Z,6.10
